createdAt,value
2023-06-17T00:00:48.139Z,4.40
2023-06-17T00:03:15.032Z,4.63
2023-06-17T00:05:42.559Z,4.40
2023-06-17T00:08:09.398Z,4.30
2023-06-17T00:10:36.096Z,4.50
2023-06-17T00:13:03.589Z,4.40
2023-06-17T00:15:34.033Z,4.67
2023-06-17T00:18:01.993Z,4.37
2023-06-17T00:20:30.249Z,4.60
2023-06-17T00:22:57.161Z,4.90
2023-06-17T00:25:24.015Z,4.80
2023-06-17T00:27:50.778Z,4.60
2023-06-17T00:30:17.996Z,4.33
2023-06-17T00:32:45.229Z,4.50
2023-06-17T00:35:12.823Z,4.67
2023-06-17T00:37:39.478Z,4.57
2023-06-17T00:40:10.599Z,4.30
2023-06-17T00:42:37.620Z,4.43
2023-06-17T00:45:04.974Z,4.80
2023-06-17T00:47:31.941Z,4.83
2023-06-17T00:49:59.247Z,4.50
2023-06-17T00:52:41.002Z,4.77
2023-06-17T00:55:10.707Z,4.70
2023-06-17T00:57:39.479Z,4.77
2023-06-17T01:00:11.193Z,4.73
2023-06-17T01:02:41.585Z,4.70
2023-06-17T01:05:13.597Z,4.17
2023-06-17T01:07:59.054Z,4.97
2023-06-17T01:10:35.339Z,4.80
2023-06-17T01:13:04.841Z,5.00
2023-06-17T01:15:37.236Z,5.20
2023-06-17T01:18:06.067Z,5.30
2023-06-17T01:20:33.871Z,5.03
2023-06-17T01:23:02.312Z,4.90
2023-06-17T01:25:33.003Z,4.83
2023-06-17T01:28:11.517Z,4.77
2023-06-17T01:30:38.247Z,4.90
2023-06-17T01:33:05.112Z,4.27
2023-06-17T01:35:33.662Z,4.47
2023-06-17T01:38:08.648Z,4.43
2023-06-17T01:40:36.296Z,4.43
2023-06-17T01:43:05.385Z,4.87
2023-06-17T01:45:33.276Z,4.50
2023-06-17T01:48:00.356Z,4.03
2023-06-17T01:50:27.152Z,5.00
2023-06-17T01:52:53.930Z,4.73
2023-06-17T01:55:20.811Z,4.30
2023-06-17T01:57:47.619Z,4.53
2023-06-17T02:00:14.935Z,4.70
2023-06-17T02:02:51.958Z,5.63
2023-06-17T02:05:20.913Z,5.10
2023-06-17T02:07:48.512Z,5.20
2023-06-17T02:10:15.803Z,5.50
2023-06-17T02:12:42.900Z,5.30
2023-06-17T02:15:10.342Z,5.17
2023-06-17T02:17:37.206Z,4.37
2023-06-17T02:20:07.416Z,4.57
2023-06-17T02:22:34.555Z,4.87
2023-06-17T02:25:01.518Z,5.00
2023-06-17T02:27:28.498Z,4.70
2023-06-17T02:29:57.451Z,4.20
2023-06-17T02:32:24.540Z,4.43
2023-06-17T02:34:51.868Z,4.60
2023-06-17T02:37:18.539Z,4.33
2023-06-17T02:39:45.329Z,5.03
2023-06-17T02:42:12.825Z,4.30
2023-06-17T02:44:39.689Z,4.20
2023-06-17T02:47:07.796Z,4.50
2023-06-17T02:49:34.656Z,4.83
2023-06-17T02:52:01.491Z,4.63
2023-06-17T02:54:28.516Z,4.90
2023-06-17T02:56:56.038Z,4.73
2023-06-17T02:59:23.830Z,4.67
2023-06-17T03:01:52.484Z,5.53
2023-06-17T03:04:21.971Z,5.40
2023-06-17T03:06:52.029Z,5.20
2023-06-17T03:09:19.427Z,5.13
2023-06-17T03:11:47.065Z,4.80
2023-06-17T03:14:13.807Z,5.63
2023-06-17T03:16:41.746Z,5.67
2023-06-17T03:19:09.100Z,5.90
2023-06-17T03:21:41.914Z,5.57
2023-06-17T03:24:09.512Z,5.63
2023-06-17T03:26:36.339Z,5.40
2023-06-17T03:29:04.306Z,5.40
2023-06-17T03:31:31.852Z,5.57
2023-06-17T03:33:58.821Z,4.73
2023-06-17T03:36:29.472Z,5.30
2023-06-17T03:38:57.852Z,4.87
2023-06-17T03:41:27.208Z,5.70
2023-06-17T03:43:53.965Z,5.40
2023-06-17T03:46:21.300Z,4.77
2023-06-17T03:48:48.157Z,5.20
2023-06-17T03:51:14.970Z,4.60
2023-06-17T03:53:41.886Z,4.70
2023-06-17T03:56:08.793Z,4.93
2023-06-17T03:58:35.482Z,4.90
2023-06-17T04:01:02.169Z,4.63
2023-06-17T04:03:29.248Z,5.17
2023-06-17T04:05:56.802Z,4.90
2023-06-17T04:08:24.619Z,4.90
2023-06-17T04:10:53.853Z,4.83
2023-06-17T04:13:20.585Z,5.23
2023-06-17T04:15:47.548Z,4.80
2023-06-17T04:18:14.567Z,5.03
2023-06-17T04:20:41.468Z,4.87
2023-06-17T04:23:08.542Z,4.87
2023-06-17T04:25:38.406Z,4.73
2023-06-17T04:28:13.888Z,5.07
2023-06-17T04:30:41.416Z,4.80
2023-06-17T04:33:12.635Z,5.10
2023-06-17T04:35:43.066Z,5.30
2023-06-17T04:38:11.490Z,5.30
2023-06-17T04:40:39.767Z,5.03
2023-06-17T04:43:09.811Z,5.40
2023-06-17T04:45:37.074Z,5.00
2023-06-17T04:48:06.837Z,4.97
2023-06-17T04:50:34.590Z,4.83
2023-06-17T04:53:07.243Z,4.93
2023-06-17T04:55:37.298Z,4.20
2023-06-17T04:58:06.046Z,4.67
2023-06-17T05:00:40.778Z,4.73
2023-06-17T05:03:08.902Z,4.90
2023-06-17T05:05:36.833Z,5.27
2023-06-17T05:08:04.135Z,4.77
2023-06-17T05:10:31.256Z,4.90
2023-06-17T05:12:58.072Z,4.87
2023-06-17T05:15:27.417Z,4.70
2023-06-17T05:17:54.272Z,4.80
2023-06-17T05:20:21.247Z,5.00
2023-06-17T05:22:48.056Z,4.83
2023-06-17T05:25:15.169Z,5.10
2023-06-17T05:27:41.874Z,4.77
2023-06-17T05:30:09.902Z,5.10
2023-06-17T05:32:38.966Z,4.90
2023-06-17T05:35:06.286Z,5.10
2023-06-17T05:37:34.261Z,4.80
2023-06-17T05:40:03.276Z,4.80
2023-06-17T05:42:30.423Z,5.17
2023-06-17T05:44:57.680Z,5.13
2023-06-17T05:47:25.313Z,4.80
2023-06-17T05:49:52.058Z,4.90
2023-06-17T05:52:18.877Z,4.80
2023-06-17T05:54:45.741Z,4.90
2023-06-17T05:57:12.630Z,4.67
2023-06-17T05:59:39.315Z,4.97
2023-06-17T06:02:06.247Z,5.20
2023-06-17T06:04:32.971Z,4.03
2023-06-17T06:06:59.899Z,4.90
2023-06-17T06:09:26.657Z,4.93
2023-06-17T06:11:53.344Z,5.07
2023-06-17T06:14:20.172Z,4.50
2023-06-17T06:16:48.694Z,4.80
2023-06-17T06:19:15.983Z,4.53
2023-06-17T06:21:43.533Z,4.87
2023-06-17T06:24:10.524Z,4.63
2023-06-17T06:26:38.974Z,4.77
2023-06-17T06:29:08.483Z,5.43
2023-06-17T06:31:35.168Z,5.27
2023-06-17T06:34:02.053Z,5.23
2023-06-17T06:36:28.748Z,5.10
2023-06-17T06:38:55.750Z,5.03
2023-06-17T06:41:22.504Z,5.43
2023-06-17T06:44:04.905Z,4.57
2023-06-17T06:46:32.791Z,4.83
2023-06-17T06:49:00.147Z,5.10
2023-06-17T06:51:27.954Z,5.40
2023-06-17T06:53:54.971Z,5.27
2023-06-17T06:56:21.783Z,4.73
2023-06-17T06:58:48.434Z,4.90
2023-06-17T07:01:15.178Z,4.80
2023-06-17T07:03:42.912Z,5.00
2023-06-17T07:06:10.074Z,4.47
2023-06-17T07:08:37.351Z,4.50
2023-06-17T07:11:04.114Z,4.63
2023-06-17T07:13:30.830Z,4.67
2023-06-17T07:15:57.551Z,5.30
2023-06-17T07:18:24.306Z,4.87
2023-06-17T07:20:51.069Z,4.57
2023-06-17T07:23:18.927Z,5.43
2023-06-17T07:25:45.673Z,4.60
2023-06-17T07:28:14.022Z,4.72
2023-06-17T07:30:41.618Z,4.63
2023-06-17T07:33:08.677Z,4.43
2023-06-17T07:35:35.544Z,4.20
2023-06-17T07:38:02.217Z,5.10
2023-06-17T07:40:30.288Z,4.70
2023-06-17T07:42:56.961Z,4.82
2023-06-17T07:45:23.673Z,4.75
2023-06-17T07:47:50.558Z,4.65
2023-06-17T07:50:17.289Z,4.43
2023-06-17T07:52:44.053Z,4.80
2023-06-17T07:55:11.800Z,4.30
2023-06-17T07:57:38.637Z,4.82
2023-06-17T08:00:14.282Z,4.30
2023-06-17T08:02:44.127Z,4.57
2023-06-17T08:05:11.253Z,4.32
2023-06-17T08:07:38.023Z,4.50
2023-06-17T08:10:07.367Z,4.40
2023-06-17T08:12:36.366Z,4.55
2023-06-17T08:15:03.284Z,4.07
2023-06-17T08:17:30.238Z,4.13
2023-06-17T08:19:57.165Z,4.43
2023-06-17T08:22:24.258Z,4.63
2023-06-17T08:24:50.958Z,4.13
2023-06-17T08:27:17.790Z,4.68
2023-06-17T08:29:44.519Z,4.32
2023-06-17T08:32:11.241Z,4.63
2023-06-17T08:34:38.145Z,4.47
2023-06-17T08:37:05.865Z,4.10
2023-06-17T08:39:33.105Z,4.22
2023-06-17T08:42:00.022Z,4.00
2023-06-17T08:44:28.649Z,4.20
2023-06-17T08:46:59.522Z,3.95
2023-06-17T08:49:28.040Z,3.80
2023-06-17T08:51:55.100Z,4.50
2023-06-17T08:54:22.600Z,4.30
2023-06-17T08:56:49.508Z,4.70
2023-06-17T08:59:16.255Z,3.97
2023-06-17T09:01:44.742Z,4.28
2023-06-17T09:04:12.912Z,4.15
2023-06-17T09:06:39.629Z,4.47
2023-06-17T09:09:06.584Z,4.30
2023-06-17T09:11:33.971Z,4.28
2023-06-17T09:14:02.526Z,4.50
2023-06-17T09:16:30.291Z,4.32
2023-06-17T09:19:04.896Z,4.72
2023-06-17T09:21:32.582Z,4.50
2023-06-17T09:24:02.005Z,4.20
2023-06-17T09:26:34.346Z,4.35
2023-06-17T09:29:06.253Z,4.03
2023-06-17T09:31:46.794Z,4.30
2023-06-17T09:34:14.862Z,4.53
2023-06-17T09:36:41.966Z,4.28
2023-06-17T09:39:13.200Z,4.15
2023-06-17T09:41:41.542Z,4.30
2023-06-17T09:44:09.069Z,4.00
2023-06-17T09:46:37.671Z,4.90
2023-06-17T09:49:10.395Z,3.88
2023-06-17T09:51:38.960Z,4.18
2023-06-17T09:54:07.310Z,3.42
2023-06-17T09:56:35.585Z,3.30
2023-06-17T09:59:08.514Z,3.25
2023-06-17T10:01:40.791Z,3.33
2023-06-17T10:04:08.600Z,3.53
2023-06-17T10:06:38.733Z,3.38
2023-06-17T10:09:08.339Z,3.60
2023-06-17T10:11:36.149Z,3.70
2023-06-17T10:14:07.259Z,3.65
2023-06-17T10:16:45.003Z,4.22
2023-06-17T10:19:16.187Z,4.03
2023-06-17T10:21:46.674Z,4.10
2023-06-17T10:24:15.127Z,3.70
2023-06-17T10:26:41.856Z,3.47
2023-06-17T10:29:11.342Z,3.90
2023-06-17T10:31:40.226Z,4.10
2023-06-17T10:34:17.591Z,3.97
2023-06-17T10:36:52.853Z,3.55
2023-06-17T10:39:19.865Z,3.78
2023-06-17T10:41:56.993Z,3.85
2023-06-17T10:44:36.354Z,3.80
2023-06-17T10:47:15.373Z,3.90
2023-06-17T10:49:47.147Z,4.00
2023-06-17T10:52:14.740Z,4.00
2023-06-17T10:54:50.450Z,3.63
2023-06-17T10:57:17.248Z,3.78
2023-06-17T10:59:44.055Z,4.20
2023-06-17T11:02:10.909Z,3.95
2023-06-17T11:04:42.313Z,3.72
2023-06-17T11:07:09.503Z,4.20
2023-06-17T11:09:38.220Z,4.10
2023-06-17T11:12:05.490Z,3.65
2023-06-17T11:14:33.692Z,3.90
2023-06-17T11:17:00.889Z,3.75
2023-06-17T11:19:27.858Z,3.75
2023-06-17T11:22:04.082Z,3.40
2023-06-17T11:24:31.899Z,3.40
2023-06-17T11:26:59.299Z,3.60
2023-06-17T11:29:29.517Z,3.10
2023-06-17T11:32:01.123Z,3.45
2023-06-17T11:34:33.890Z,3.80
2023-06-17T11:37:03.045Z,3.70
2023-06-17T11:39:31.955Z,3.25
2023-06-17T11:42:02.858Z,3.47
2023-06-17T11:44:31.535Z,3.13
2023-06-17T11:47:04.208Z,3.65
2023-06-17T11:49:31.324Z,3.25
2023-06-17T11:52:10.132Z,3.50
2023-06-17T11:54:49.471Z,3.35
2023-06-17T11:57:21.248Z,3.53
2023-06-17T11:59:48.523Z,3.13
2023-06-17T12:02:16.942Z,3.05
2023-06-17T12:04:45.040Z,3.28
2023-06-17T12:07:11.962Z,3.10
2023-06-17T12:09:39.465Z,3.67
2023-06-17T12:12:11.717Z,3.42
2023-06-17T12:14:38.583Z,3.42
2023-06-17T12:17:05.705Z,3.50
2023-06-17T12:19:32.461Z,3.42
2023-06-17T12:22:01.781Z,3.42
2023-06-17T12:24:28.722Z,3.70
2023-06-17T12:26:55.481Z,3.63
2023-06-17T12:29:25.995Z,3.92
2023-06-17T12:31:54.074Z,3.75
2023-06-17T12:34:20.874Z,3.50
2023-06-17T12:36:48.320Z,3.85
2023-06-17T12:39:15.213Z,3.80
2023-06-17T12:41:41.965Z,3.80
2023-06-17T12:44:08.892Z,3.80
2023-06-17T12:46:36.752Z,4.07
2023-06-17T12:49:03.770Z,3.90
2023-06-17T12:51:30.602Z,3.33
2023-06-17T12:53:57.335Z,3.45
2023-06-17T12:56:23.983Z,3.67
2023-06-17T12:58:50.816Z,3.92
2023-06-17T13:01:17.986Z,3.67
2023-06-17T13:03:45.107Z,4.15
2023-06-17T13:06:11.920Z,6.55
2023-06-17T13:08:38.608Z,5.50
2023-06-17T13:11:05.267Z,4.60
2023-06-17T13:13:32.636Z,4.00
2023-06-17T13:15:59.486Z,3.75
2023-06-17T13:18:26.439Z,4.05
2023-06-17T13:20:53.462Z,3.70
2023-06-17T13:23:20.534Z,4.07
2023-06-17T13:25:47.470Z,3.65
2023-06-17T13:28:14.207Z,5.10
2023-06-17T13:30:41.362Z,6.38
2023-06-17T13:33:08.617Z,4.47
2023-06-17T13:35:35.483Z,3.53
2023-06-17T13:38:03.996Z,3.63
2023-06-17T13:40:30.849Z,6.18
2023-06-17T13:42:57.673Z,4.55
2023-06-17T13:45:24.348Z,3.92
2023-06-17T13:47:51.262Z,3.85
2023-06-17T13:50:18.137Z,3.70
2023-06-17T13:52:44.895Z,3.65
2023-06-17T13:55:11.848Z,3.72
2023-06-17T13:57:38.555Z,3.65
2023-06-17T14:00:05.809Z,3.70
2023-06-17T14:02:32.658Z,3.83
2023-06-17T14:04:59.790Z,3.95
2023-06-17T14:07:26.578Z,3.15
2023-06-17T14:09:53.336Z,3.50
2023-06-17T14:12:21.440Z,3.90
2023-06-17T14:14:48.603Z,3.75
2023-06-17T14:17:15.515Z,3.72
2023-06-17T14:19:42.211Z,3.70
2023-06-17T14:22:10.069Z,4.00
2023-06-17T14:24:38.862Z,3.40
2023-06-17T14:27:36.232Z,3.50
2023-06-17T14:30:04.971Z,3.53
2023-06-17T14:32:32.503Z,3.67
2023-06-17T14:34:59.899Z,4.10
2023-06-17T14:37:26.725Z,3.72
2023-06-17T14:39:53.397Z,3.60
2023-06-17T14:42:20.070Z,4.00
2023-06-17T14:44:46.786Z,3.50
2023-06-17T14:47:13.564Z,3.63
2023-06-17T14:49:40.391Z,3.65
2023-06-17T14:52:07.377Z,3.72
2023-06-17T14:54:34.584Z,3.47
2023-06-17T14:57:01.444Z,3.30
2023-06-17T14:59:28.086Z,3.63
2023-06-17T15:01:54.734Z,3.47
2023-06-17T15:04:21.573Z,3.20
2023-06-17T15:06:48.268Z,3.30
2023-06-17T15:09:29.028Z,3.50
2023-06-17T15:11:57.198Z,3.28
2023-06-17T15:14:25.092Z,3.08
2023-06-17T15:16:52.318Z,3.53
2023-06-17T15:19:19.761Z,3.20
2023-06-17T15:21:47.517Z,3.30
2023-06-17T15:24:15.680Z,3.42
2023-06-17T15:26:44.103Z,3.38
2023-06-17T15:29:11.228Z,2.85
2023-06-17T15:31:38.746Z,3.30
2023-06-17T15:34:06.144Z,3.40
2023-06-17T15:36:32.930Z,3.45
2023-06-17T15:39:18.206Z,3.30
2023-06-17T15:41:49.308Z,3.45
2023-06-17T15:44:16.868Z,2.95
2023-06-17T15:46:43.943Z,3.20
2023-06-17T15:49:10.926Z,3.78
2023-06-17T15:51:38.113Z,3.20
2023-06-17T15:54:05.572Z,3.70
2023-06-17T15:56:34.391Z,3.40
2023-06-17T15:59:01.252Z,3.80
2023-06-17T16:01:28.347Z,3.55
2023-06-17T16:03:57.137Z,3.47
2023-06-17T16:06:24.022Z,3.58
2023-06-17T16:08:52.175Z,3.28
2023-06-17T16:11:19.591Z,3.70
2023-06-17T16:13:46.408Z,3.33
2023-06-17T16:16:13.161Z,3.47
2023-06-17T16:18:40.209Z,3.50
2023-06-17T16:21:06.928Z,3.20
2023-06-17T16:23:33.652Z,3.40
2023-06-17T16:26:00.571Z,3.00
2023-06-17T16:28:27.270Z,3.35
2023-06-17T16:30:54.099Z,3.10
2023-06-17T16:33:21.052Z,3.22
2023-06-17T16:35:47.872Z,3.38
2023-06-17T16:38:14.769Z,3.70
2023-06-17T16:40:41.527Z,3.30
2023-06-17T16:43:08.181Z,3.25
2023-06-17T16:45:35.353Z,3.22
2023-06-17T16:48:02.159Z,3.33
2023-06-17T16:50:28.958Z,3.30
2023-06-17T16:52:55.741Z,3.10
2023-06-17T16:55:22.469Z,3.38
2023-06-17T16:57:49.226Z,3.38
2023-06-17T17:00:17.908Z,3.13
2023-06-17T17:02:44.783Z,3.00
2023-06-17T17:05:12.976Z,3.40
2023-06-17T17:07:39.660Z,3.05
2023-06-17T17:10:06.636Z,3.10
2023-06-17T17:12:33.308Z,3.10
2023-06-17T17:15:00.029Z,2.85
2023-06-17T17:17:26.926Z,3.40
2023-06-17T17:19:54.720Z,3.42
2023-06-17T17:22:21.528Z,3.35
2023-06-17T17:24:48.319Z,3.45
2023-06-17T17:27:15.324Z,3.55
2023-06-17T17:29:42.479Z,3.38
2023-06-17T17:32:09.393Z,3.80
2023-06-17T17:34:36.088Z,3.50
2023-06-17T17:37:02.927Z,3.50
2023-06-17T17:39:29.664Z,3.40
2023-06-17T17:41:56.336Z,3.42
2023-06-17T17:44:23.066Z,3.13
2023-06-17T17:46:49.708Z,3.50
2023-06-17T17:49:16.726Z,3.10
2023-06-17T17:51:43.403Z,3.47
2023-06-17T17:54:10.065Z,3.42
2023-06-17T17:56:37.230Z,3.50
2023-06-17T17:59:06.904Z,3.55
2023-06-17T18:01:33.646Z,3.05
2023-06-17T18:04:00.298Z,3.40
2023-06-17T18:06:30.234Z,3.20
2023-06-17T18:08:57.212Z,3.58
2023-06-17T18:11:24.001Z,3.78
2023-06-17T18:13:53.836Z,3.28
2023-06-17T18:16:23.073Z,3.42
2023-06-17T18:18:50.646Z,3.47
2023-06-17T18:21:17.522Z,3.40
2023-06-17T18:23:45.144Z,3.72
2023-06-17T18:26:11.902Z,3.60
2023-06-17T18:28:39.152Z,3.58
2023-06-17T18:31:06.199Z,3.22
2023-06-17T18:33:33.043Z,3.58
2023-06-17T18:35:59.700Z,3.40
2023-06-17T18:38:26.352Z,3.47
2023-06-17T18:40:53.033Z,3.40
2023-06-17T18:43:22.906Z,3.83
2023-06-17T18:45:50.117Z,4.40
2023-06-17T18:48:16.881Z,4.20
2023-06-17T18:50:43.603Z,4.82
2023-06-17T18:53:10.979Z,5.13
2023-06-17T18:55:38.571Z,4.60
2023-06-17T18:58:05.317Z,5.07
2023-06-17T19:00:34.772Z,4.90
2023-06-17T19:03:05.126Z,4.32
2023-06-17T19:05:31.846Z,4.50
2023-06-17T19:07:58.574Z,3.70
2023-06-17T19:10:25.512Z,4.03
2023-06-17T19:12:52.245Z,4.03
2023-06-17T19:15:18.990Z,3.88
2023-06-17T19:17:57.733Z,4.30
2023-06-17T19:20:24.499Z,4.18
2023-06-17T19:22:51.406Z,4.10
2023-06-17T19:25:18.634Z,4.65
2023-06-17T19:27:45.580Z,4.30
2023-06-17T19:30:12.365Z,5.00
2023-06-17T19:32:40.503Z,5.18
2023-06-17T19:35:07.769Z,4.57
2023-06-17T19:37:34.512Z,5.50
2023-06-17T19:40:01.320Z,5.27
2023-06-17T19:42:27.975Z,5.90
2023-06-17T19:44:57.347Z,5.47
2023-06-17T19:47:25.712Z,6.00
2023-06-17T19:50:00.289Z,5.57
2023-06-17T19:52:27.086Z,4.50
2023-06-17T19:54:53.969Z,5.03
2023-06-17T19:57:20.795Z,4.83
2023-06-17T19:59:47.734Z,4.70
2023-06-17T20:02:15.235Z,4.67
2023-06-17T20:04:42.083Z,4.57
2023-06-17T20:07:08.752Z,4.47
2023-06-17T20:09:35.463Z,4.27
2023-06-17T20:12:02.166Z,3.83
2023-06-17T20:14:28.858Z,4.30
2023-06-17T20:16:55.645Z,4.10
2023-06-17T20:19:22.356Z,4.50
2023-06-17T20:21:49.062Z,4.43
2023-06-17T20:24:15.851Z,4.60
2023-06-17T20:26:42.601Z,4.50
2023-06-17T20:29:09.250Z,4.33
2023-06-17T20:31:35.945Z,4.60
2023-06-17T20:34:02.621Z,4.50
2023-06-17T20:36:29.484Z,5.33
2023-06-17T20:38:56.267Z,5.20
2023-06-17T20:41:22.963Z,5.83
2023-06-17T20:43:49.734Z,5.07
2023-06-17T20:46:16.466Z,5.20
2023-06-17T20:48:43.305Z,5.10
2023-06-17T20:51:11.160Z,4.90
2023-06-17T20:53:38.001Z,5.10
2023-06-17T20:56:04.719Z,5.40
2023-06-17T20:58:31.383Z,4.97
2023-06-17T21:00:58.157Z,4.90
2023-06-17T21:03:24.938Z,5.20
2023-06-17T21:05:51.743Z,4.83
2023-06-17T21:08:18.773Z,5.23
2023-06-17T21:10:45.601Z,5.23
2023-06-17T21:13:12.778Z,4.93
2023-06-17T21:15:39.478Z,4.53
2023-06-17T21:18:06.395Z,5.13
2023-06-17T21:20:33.099Z,4.47
2023-06-17T21:23:00.773Z,4.90
2023-06-17T21:25:27.471Z,4.67
2023-06-17T21:27:54.160Z,4.57
2023-06-17T21:30:21.218Z,4.33
2023-06-17T21:32:48.256Z,5.20
2023-06-17T21:35:15.325Z,4.43
2023-06-17T21:37:42.058Z,4.90
2023-06-17T21:40:09.942Z,5.40
2023-06-17T21:42:37.783Z,4.50
2023-06-17T21:45:04.862Z,5.27
2023-06-17T21:47:31.590Z,5.10
2023-06-17T21:49:59.422Z,4.90
2023-06-17T21:52:26.173Z,5.20
2023-06-17T21:54:52.919Z,6.00
2023-06-17T21:57:20.713Z,6.17
2023-06-17T21:59:47.408Z,5.83
2023-06-17T22:02:14.059Z,5.90
2023-06-17T22:04:40.754Z,4.97
2023-06-17T22:07:07.416Z,4.60
2023-06-17T22:09:34.118Z,4.83
2023-06-17T22:12:00.949Z,5.00
2023-06-17T22:14:27.686Z,5.10
2023-06-17T22:16:54.442Z,5.23
2023-06-17T22:19:21.130Z,5.73
2023-06-17T22:21:47.868Z,5.20
2023-06-17T22:24:14.699Z,5.43
2023-06-17T22:26:41.566Z,5.20
2023-06-17T22:29:08.564Z,5.50
2023-06-17T22:31:35.307Z,4.97
2023-06-17T22:34:01.971Z,5.00
2023-06-17T22:36:28.739Z,5.27
2023-06-17T22:38:55.406Z,4.77
2023-06-17T22:41:22.080Z,4.87
2023-06-17T22:43:49.712Z,4.47
2023-06-17T22:46:16.488Z,4.10
2023-06-17T22:48:43.186Z,4.37
2023-06-17T22:51:09.888Z,5.03
2023-06-17T22:53:36.629Z,4.33
2023-06-17T22:56:03.497Z,4.77
2023-06-17T22:58:30.562Z,4.80
2023-06-17T23:00:57.390Z,4.27
2023-06-17T23:03:24.215Z,4.93
2023-06-17T23:05:51.072Z,4.97
2023-06-17T23:08:17.736Z,4.47
2023-06-17T23:10:44.442Z,4.93
2023-06-17T23:13:11.289Z,4.30
2023-06-17T23:15:39.288Z,4.70
2023-06-17T23:18:06.357Z,5.27
2023-06-17T23:20:33.078Z,4.63
2023-06-17T23:22:59.782Z,5.10
2023-06-17T23:25:27.249Z,4.83
2023-06-17T23:27:54.524Z,4.73
2023-06-17T23:30:21.952Z,5.20
2023-06-17T23:32:48.755Z,4.70
2023-06-17T23:35:15.750Z,4.73
2023-06-17T23:37:42.485Z,4.57
2023-06-17T23:40:09.826Z,4.40
2023-06-17T23:42:37.090Z,4.87
2023-06-17T23:45:04.792Z,5.07
2023-06-17T23:47:32.003Z,4.87
2023-06-17T23:49:58.796Z,4.70
2023-06-17T23:52:25.624Z,4.67
2023-06-17T23:54:52.278Z,5.20
2023-06-17T23:57:19.315Z,4.67
2023-06-17T23:59:46.040Z,5.10
